ACA3179 KLAX-KLAS
Flight info
| Callsign | ACA3179 |
|---|---|
| Flight time | 0h 44m |
| Altitude | 29000 |
| Route | ORCKA5 MISEN RNDRZ4 |
| Aircraft | A320/M-SDE3FGHIRWY/LB1 |
Departure
| Time | 2026-05-04 05:10 |
|---|---|
| Airport | Los Angeles International Airport (KLAX) |
Arrival
| Time | 2026-05-04 05:54 |
|---|---|
| Airport | Harry Reid International Airport (KLAS) |
| Time | Latitude | Longitude | Altitude | Speed | Heading |
|---|---|---|---|---|---|
| 2026-05-04 04:39 | 33.94598 | -118.40655 | 94 ft | 0 kts | 262° |
| 2026-05-04 04:59 | 33.94598 | -118.40654 | 93 ft | 1 kts | 262° |
| 2026-05-04 04:59 | 33.94602 | -118.40625 | 96 ft | 4 kts | 262° |
| 2026-05-04 04:59 | 33.94605 | -118.40599 | 93 ft | 4 kts | 271° |
| 2026-05-04 04:59 | 33.94599 | -118.40570 | 93 ft | 4 kts | 310° |
| 2026-05-04 05:00 | 33.94583 | -118.40557 | 92 ft | 1 kts | 353° |
| 2026-05-04 05:00 | 33.94605 | -118.40560 | 93 ft | 4 kts | 353° |
| 2026-05-04 05:00 | 33.94647 | -118.40566 | 94 ft | 0 kts | 353° |
| 2026-05-04 05:06 | 33.94802 | -118.40382 | 93 ft | 21 kts | 84° |
| 2026-05-04 05:06 | 33.94832 | -118.40178 | 95 ft | 26 kts | 84° |
| 2026-05-04 05:06 | 33.94877 | -118.40081 | 93 ft | 11 kts | 6° |
| 2026-05-04 05:07 | 33.94921 | -118.40026 | 94 ft | 10 kts | 77° |
| 2026-05-04 05:07 | 33.94933 | -118.39950 | 93 ft | 9 kts | 68° |
| 2026-05-04 05:07 | 33.94954 | -118.39923 | 94 ft | 0 kts | 34° |
| 2026-05-04 05:09 | 33.94940 | -118.40948 | 97 ft | 118 kts | 263° |
| 2026-05-04 05:09 | 33.94813 | -118.42148 | 205 ft | 161 kts | 262° |
| 2026-05-04 05:10 | 33.94667 | -118.43517 | 817 ft | 169 kts | 262° |
| 2026-05-04 05:10 | 33.94512 | -118.44934 | 1558 ft | 179 kts | 264° |
| 2026-05-04 05:10 | 33.94340 | -118.46539 | 1939 ft | 206 kts | 264° |
| 2026-05-04 05:10 | 33.94158 | -118.48346 | 2481 ft | 230 kts | 263° |
| 2026-05-04 05:11 | 33.93960 | -118.50345 | 3105 ft | 250 kts | 264° |
| 2026-05-04 05:11 | 33.93757 | -118.52502 | 3783 ft | 268 kts | 264° |
| 2026-05-04 05:11 | 33.93486 | -118.54752 | 4646 ft | 273 kts | 254° |
| 2026-05-04 05:11 | 33.92539 | -118.56662 | 4924 ft | 266 kts | 221° |
| 2026-05-04 05:12 | 33.90899 | -118.57609 | 5003 ft | 265 kts | 191° |
| 2026-05-04 05:12 | 33.89065 | -118.57626 | 5012 ft | 266 kts | 170° |
| 2026-05-04 05:12 | 33.87334 | -118.56866 | 5011 ft | 267 kts | 149° |
| 2026-05-04 05:12 | 33.85969 | -118.55354 | 5013 ft | 270 kts | 125° |
| 2026-05-04 05:13 | 33.85255 | -118.53278 | 5012 ft | 271 kts | 99° |
| 2026-05-04 05:13 | 33.85358 | -118.51027 | 5015 ft | 272 kts | 73° |
| 2026-05-04 05:13 | 33.86259 | -118.49047 | 5018 ft | 272 kts | 47° |
| 2026-05-04 05:13 | 33.87757 | -118.47670 | 5020 ft | 273 kts | 31° |
| 2026-05-04 05:14 | 33.89376 | -118.46492 | 5016 ft | 273 kts | 30° |
| 2026-05-04 05:14 | 33.91002 | -118.45307 | 5018 ft | 273 kts | 31° |
| 2026-05-04 05:14 | 33.92558 | -118.44017 | 5019 ft | 273 kts | 40° |
| 2026-05-04 05:14 | 33.93841 | -118.42337 | 5019 ft | 273 kts | 54° |
| 2026-05-04 05:15 | 33.94915 | -118.40442 | 5016 ft | 274 kts | 56° |
| 2026-05-04 05:15 | 33.95988 | -118.38543 | 5018 ft | 273 kts | 56° |
| 2026-05-04 05:15 | 33.97057 | -118.36653 | 5017 ft | 274 kts | 57° |
| 2026-05-04 05:15 | 33.98150 | -118.34715 | 5640 ft | 281 kts | 56° |
| 2026-05-04 05:16 | 33.99250 | -118.32770 | 6720 ft | 282 kts | 56° |
| 2026-05-04 05:16 | 34.00371 | -118.30796 | 7582 ft | 288 kts | 56° |
| 2026-05-04 05:16 | 34.01516 | -118.28778 | 8447 ft | 295 kts | 56° |
| 2026-05-04 05:16 | 34.02685 | -118.26716 | 9280 ft | 302 kts | 56° |
| 2026-05-04 05:17 | 34.03882 | -118.24602 | 10119 ft | 308 kts | 56° |
| 2026-05-04 05:17 | 34.05117 | -118.22419 | 10664 ft | 323 kts | 56° |
| 2026-05-04 05:17 | 34.06343 | -118.20259 | 11985 ft | 301 kts | 56° |
| 2026-05-04 05:17 | 34.07490 | -118.18241 | 13343 ft | 285 kts | 57° |
| 2026-05-04 05:18 | 34.08604 | -118.16275 | 14218 ft | 284 kts | 57° |
| 2026-05-04 05:18 | 34.09727 | -118.14288 | 14843 ft | 290 kts | 56° |
| 2026-05-04 05:18 | 34.10874 | -118.12256 | 15391 ft | 298 kts | 56° |
| 2026-05-04 05:18 | 34.12091 | -118.10105 | 15617 ft | 322 kts | 56° |
| 2026-05-04 05:19 | 34.13396 | -118.07795 | 15822 ft | 345 kts | 56° |
| 2026-05-04 05:19 | 34.14794 | -118.05313 | 15975 ft | 369 kts | 56° |
| 2026-05-04 05:19 | 34.16280 | -118.02672 | 16118 ft | 392 kts | 55° |
| 2026-05-04 05:19 | 34.17845 | -117.99889 | 16486 ft | 406 kts | 55° |
| 2026-05-04 05:20 | 34.19449 | -117.97038 | 17051 ft | 415 kts | 55° |
| 2026-05-04 05:20 | 34.21086 | -117.94130 | 17618 ft | 422 kts | 54° |
| 2026-05-04 05:20 | 34.22752 | -117.91170 | 18206 ft | 430 kts | 54° |
| 2026-05-04 05:20 | 34.24449 | -117.88152 | 18655 ft | 437 kts | 54° |
| 2026-05-04 05:21 | 34.26161 | -117.85100 | 19225 ft | 441 kts | 54° |
| 2026-05-04 05:21 | 34.27887 | -117.82019 | 19792 ft | 445 kts | 54° |
| 2026-05-04 05:21 | 34.29631 | -117.78907 | 20430 ft | 449 kts | 54° |
| 2026-05-04 05:21 | 34.31386 | -117.75766 | 21011 ft | 453 kts | 54° |
| 2026-05-04 05:22 | 34.33156 | -117.72593 | 21573 ft | 457 kts | 54° |
| 2026-05-04 05:22 | 34.34940 | -117.69387 | 22126 ft | 462 kts | 54° |
| 2026-05-04 05:22 | 34.36767 | -117.66176 | 22660 ft | 466 kts | 53° |
| 2026-05-04 05:22 | 34.38657 | -117.62976 | 23179 ft | 469 kts | 52° |
| 2026-05-04 05:23 | 34.40591 | -117.59777 | 23682 ft | 473 kts | 52° |
| 2026-05-04 05:23 | 34.42555 | -117.56555 | 24082 ft | 477 kts | 51° |
| 2026-05-04 05:23 | 34.44533 | -117.53302 | 24493 ft | 481 kts | 52° |
| 2026-05-04 05:23 | 34.46509 | -117.50027 | 24990 ft | 485 kts | 52° |
| 2026-05-04 05:24 | 34.48504 | -117.46691 | 25383 ft | 489 kts | 52° |
| 2026-05-04 05:24 | 34.50496 | -117.43339 | 25816 ft | 492 kts | 52° |
| 2026-05-04 05:24 | 34.52499 | -117.39954 | 26205 ft | 496 kts | 52° |
| 2026-05-04 05:24 | 34.54515 | -117.36540 | 26576 ft | 500 kts | 52° |
| 2026-05-04 05:25 | 34.56547 | -117.33094 | 26933 ft | 504 kts | 52° |
| 2026-05-04 05:25 | 34.58596 | -117.29623 | 27292 ft | 508 kts | 52° |
| 2026-05-04 05:25 | 34.60665 | -117.26130 | 27641 ft | 512 kts | 52° |
| 2026-05-04 05:25 | 34.62750 | -117.22607 | 27978 ft | 516 kts | 52° |
| 2026-05-04 05:26 | 34.64853 | -117.19056 | 28314 ft | 520 kts | 52° |
| 2026-05-04 05:26 | 34.66970 | -117.15476 | 28544 ft | 524 kts | 52° |
| 2026-05-04 05:26 | 34.69095 | -117.11869 | 28821 ft | 527 kts | 52° |
| 2026-05-04 05:26 | 34.71216 | -117.08256 | 28877 ft | 517 kts | 52° |
| 2026-05-04 05:27 | 34.73270 | -117.04755 | 28886 ft | 504 kts | 52° |
| 2026-05-04 05:28 | 34.87374 | -116.80699 | 28916 ft | 497 kts | 52° |
| 2026-05-04 05:29 | 34.91376 | -116.73827 | 28913 ft | 497 kts | 52° |
| 2026-05-04 05:29 | 34.95344 | -116.66930 | 28893 ft | 497 kts | 53° |
| 2026-05-04 05:31 | 35.09058 | -116.42480 | 28816 ft | 518 kts | 53° |
| 2026-05-04 05:31 | 35.11293 | -116.39019 | 28811 ft | 520 kts | 43° |
| 2026-05-04 05:32 | 35.16284 | -116.32589 | 28845 ft | 522 kts | 43° |
| 2026-05-04 05:33 | 35.23735 | -116.22932 | 28822 ft | 516 kts | 44° |
| 2026-05-04 05:33 | 35.28536 | -116.16424 | 28819 ft | 514 kts | 45° |
| 2026-05-04 05:34 | 35.33233 | -116.09869 | 28451 ft | 508 kts | 45° |
| 2026-05-04 05:34 | 35.35550 | -116.06639 | 27844 ft | 500 kts | 45° |
| 2026-05-04 05:34 | 35.37831 | -116.03474 | 26885 ft | 492 kts | 45° |
| 2026-05-04 05:34 | 35.40081 | -116.00370 | 25978 ft | 484 kts | 45° |
| 2026-05-04 05:35 | 35.42303 | -115.97316 | 25100 ft | 476 kts | 45° |
| 2026-05-04 05:35 | 35.44494 | -115.94316 | 24028 ft | 470 kts | 45° |
| 2026-05-04 05:35 | 35.46710 | -115.91286 | 22253 ft | 482 kts | 46° |
| 2026-05-04 05:35 | 35.48957 | -115.88204 | 20438 ft | 487 kts | 47° |
| 2026-05-04 05:36 | 35.51212 | -115.85095 | 18881 ft | 486 kts | 48° |
| 2026-05-04 05:36 | 35.53410 | -115.82047 | 18131 ft | 464 kts | 49° |
| 2026-05-04 05:36 | 35.55475 | -115.79175 | 17818 ft | 434 kts | 49° |
| 2026-05-04 05:36 | 35.57403 | -115.76491 | 17682 ft | 404 kts | 49° |
| 2026-05-04 05:37 | 35.59202 | -115.73990 | 17511 ft | 378 kts | 49° |
| 2026-05-04 05:37 | 35.60924 | -115.71627 | 16990 ft | 366 kts | 48° |
| 2026-05-04 05:37 | 35.62623 | -115.69333 | 16362 ft | 360 kts | 48° |
| 2026-05-04 05:38 | 35.65396 | -115.65616 | 15318 ft | 350 kts | 49° |
| 2026-05-04 05:38 | 35.67027 | -115.63429 | 14839 ft | 342 kts | 50° |
| 2026-05-04 05:38 | 35.68618 | -115.61286 | 14597 ft | 338 kts | 50° |
| 2026-05-04 05:38 | 35.70195 | -115.59153 | 14360 ft | 336 kts | 50° |
| 2026-05-04 05:39 | 35.71766 | -115.57031 | 14131 ft | 334 kts | 49° |
| 2026-05-04 05:39 | 35.75512 | -115.53700 | 13659 ft | 333 kts | 31° |
| 2026-05-04 05:39 | 35.77525 | -115.52297 | 13402 ft | 331 kts | 32° |
| 2026-05-04 05:40 | 35.81523 | -115.49499 | 12893 ft | 328 kts | 31° |
| 2026-05-04 05:40 | 35.83500 | -115.48111 | 13022 ft | 328 kts | 32° |
| 2026-05-04 05:40 | 35.85486 | -115.46714 | 13021 ft | 329 kts | 32° |
| 2026-05-04 05:41 | 35.87473 | -115.45317 | 13029 ft | 329 kts | 31° |
| 2026-05-04 05:41 | 35.89464 | -115.43921 | 13022 ft | 329 kts | 32° |
| 2026-05-04 05:41 | 35.91453 | -115.42526 | 12978 ft | 330 kts | 31° |
| 2026-05-04 05:41 | 35.93462 | -115.41120 | 12528 ft | 332 kts | 31° |
| 2026-05-04 05:42 | 35.95460 | -115.39723 | 12134 ft | 330 kts | 31° |
| 2026-05-04 05:42 | 35.97456 | -115.38327 | 11750 ft | 329 kts | 32° |
| 2026-05-04 05:42 | 35.99262 | -115.36640 | 11347 ft | 324 kts | 50° |
| 2026-05-04 05:42 | 36.00549 | -115.34410 | 10977 ft | 316 kts | 68° |
| 2026-05-04 05:43 | 36.01232 | -115.31897 | 10703 ft | 303 kts | 85° |
| 2026-05-04 05:43 | 36.01331 | -115.29348 | 10470 ft | 294 kts | 98° |
| 2026-05-04 05:43 | 36.01204 | -115.26846 | 10221 ft | 293 kts | 98° |
| 2026-05-04 05:45 | 36.00391 | -115.10335 | 9001 ft | 242 kts | 99° |
| 2026-05-04 05:45 | 36.00287 | -115.08307 | 8769 ft | 238 kts | 99° |
| 2026-05-04 05:47 | 35.99860 | -114.94858 | 6943 ft | 219 kts | 94° |
| 2026-05-04 05:47 | 36.00173 | -114.93019 | 6706 ft | 222 kts | 68° |
| 2026-05-04 05:47 | 36.01089 | -114.91498 | 6405 ft | 223 kts | 42° |
| 2026-05-04 05:48 | 36.02405 | -114.90504 | 6067 ft | 221 kts | 19° |
| 2026-05-04 05:48 | 36.03868 | -114.90109 | 5778 ft | 212 kts | 359° |
| 2026-05-04 05:48 | 36.05286 | -114.90278 | 5503 ft | 199 kts | 340° |
| 2026-05-04 05:48 | 36.06527 | -114.90911 | 5241 ft | 187 kts | 322° |
| 2026-05-04 05:49 | 36.07506 | -114.91867 | 4998 ft | 174 kts | 306° |
| 2026-05-04 05:49 | 36.08196 | -114.93014 | 4816 ft | 159 kts | 292° |
| 2026-05-04 05:49 | 36.08606 | -114.94214 | 4668 ft | 145 kts | 281° |
| 2026-05-04 05:49 | 36.08779 | -114.95402 | 4528 ft | 139 kts | 269° |
| 2026-05-04 05:51 | 36.07391 | -115.03390 | 3533 ft | 136 kts | 266° |
| 2026-05-04 05:51 | 36.07379 | -115.04558 | 3351 ft | 136 kts | 267° |
| 2026-05-04 05:52 | 36.07373 | -115.05720 | 3189 ft | 133 kts | 267° |
| 2026-05-04 05:52 | 36.07350 | -115.06862 | 3110 ft | 134 kts | 264° |
| 2026-05-04 05:52 | 36.07348 | -115.08027 | 2884 ft | 135 kts | 266° |
| 2026-05-04 05:52 | 36.07355 | -115.09193 | 2641 ft | 135 kts | 265° |
| 2026-05-04 05:53 | 36.07358 | -115.10372 | 2416 ft | 139 kts | 268° |
| 2026-05-04 05:54 | 36.07450 | -115.15462 | 2106 ft | 22 kts | 301° |
| 2026-05-04 05:55 | 36.07511 | -115.15589 | 2109 ft | 16 kts | 301° |
| 2026-05-04 05:55 | 36.07571 | -115.15679 | 2118 ft | 10 kts | 343° |
| 2026-05-04 05:55 | 36.07609 | -115.15705 | 2121 ft | 5 kts | 324° |
| 2026-05-04 05:55 | 36.07673 | -115.15781 | 2121 ft | 21 kts | 318° |
| 2026-05-04 05:56 | 36.07814 | -115.15825 | 2112 ft | 20 kts | 0° |
| 2026-05-04 05:56 | 36.07877 | -115.15708 | 2105 ft | 19 kts | 91° |
| 2026-05-04 05:56 | 36.07878 | -115.15544 | 2101 ft | 19 kts | 87° |
| 2026-05-04 05:56 | 36.07879 | -115.15404 | 2100 ft | 11 kts | 81° |
| 2026-05-04 05:57 | 36.07933 | -115.15368 | 2099 ft | 10 kts | 347° |
| 2026-05-04 05:57 | 36.08020 | -115.15416 | 2098 ft | 18 kts | 334° |
| 2026-05-04 05:57 | 36.08130 | -115.15439 | 2098 ft | 18 kts | 13° |
| 2026-05-04 05:57 | 36.08212 | -115.15415 | 2097 ft | 14 kts | 14° |
| 2026-05-04 05:58 | 36.08253 | -115.15357 | 2097 ft | 3 kts | 65° |
| 2026-05-04 05:58 | 36.08257 | -115.15345 | 2097 ft | 0 kts | 65° |
| 2026-05-04 05:58 | 36.08257 | -115.15344 | 2097 ft | 0 kts | 65° |